MON weather

Mount Cook Airport
Canterbury Region, New Zealand

Public forecast

Using degrees Celsius for public forecast. Weather courtesy of forecast.io.

METAR (pilot weather report)

Closest report is Christchurch International Airport, 105.6 nm (195.5 km) E. Retrieved 2019/05/20 23:30 UTC (25 minutes ago):

NZCH 202330Z AUTO 03005KT 9999 NCD 12/08 Q1021 NOSIG

TAF (pilot weather forecast)

Closest forecast is Queenstown International Airport, 96.2 nm (178.3 km) SW. Retrieved 2019/05/20 18:14 UTC (6 hours ago):

TAF NZQN 201710Z 2018/2112 02005KT 9999 SKC BECMG 2023/2101 26010KT BECMG 2105/2107 VRB02KT